Time,TemperatureF,DewpointF,PressureIn,WindDirection,WindDirectionDegrees,WindSpeedMPH,WindSpeedGustMPH,Humidity,HourlyPrecipIn,Conditions,Clouds,dailyrainin,SoftwareType,DateUTC
2013-02-27 00:01:00,34.0,30.3,30.16,SE,146,0.0,0.0,86,0.00,,,0.00,Wunderground v.1.15,2013-02-27 05:01:00,
2013-02-27 00:12:00,34.2,30.4,30.16,NNW,329,0.0,0.0,86,0.00,,,0.00,Wunderground v.1.15,2013-02-27 05:12:00,
2013-02-27 00:21:00,34.4,30.4,30.16,ENE,60,0.0,0.0,85,0.00,,,0.00,Wunderground v.1.15,2013-02-27 05:21:00,
2013-02-27 00:32:00,34.6,30.6,30.15,North,355,0.0,0.0,85,0.00,,,0.00,Wunderground v.1.15,2013-02-27 05:32:00,
2013-02-27 00:41:00,34.8,30.5,30.14,South,180,0.0,0.0,84,0.00,,,0.00,Wunderground v.1.15,2013-02-27 05:41:00,
2013-02-27 00:52:00,35.2,30.6,30.14,South,173,0.0,0.0,83,0.00,,,0.00,Wunderground v.1.15,2013-02-27 05:52:00,
2013-02-27 01:02:00,35.4,30.5,30.14,South,185,1.0,1.0,82,0.00,,,0.00,Wunderground v.1.15,2013-02-27 06:02:00,
2013-02-27 01:11:00,35.4,30.8,30.13,ENE,65,0.0,0.0,83,0.00,,,0.00,Wunderground v.1.15,2013-02-27 06:11:00,
2013-02-27 01:22:00,35.4,30.8,30.12,WSW,254,0.0,0.0,83,0.00,,,0.00,Wunderground v.1.15,2013-02-27 06:22:00,
2013-02-27 01:32:00,35.6,30.9,30.11,NNW,327,0.0,0.0,83,0.00,,,0.00,Wunderground v.1.15,2013-02-27 06:32:00,
2013-02-27 01:51:00,35.8,31.1,30.10,East,88,0.0,3.0,83,0.00,,,0.00,Wunderground v.1.15,2013-02-27 06:51:00,
2013-02-27 02:02:00,35.9,31.2,30.09,NW,320,1.0,1.0,83,0.00,,,0.00,Wunderground v.1.15,2013-02-27 07:02:00,
2013-02-27 02:12:00,35.9,31.2,30.09,NE,56,0.0,0.0,83,0.00,,,0.00,Wunderground v.1.15,2013-02-27 07:12:00,
2013-02-27 02:22:00,36.1,31.7,30.09,NNE,13,1.0,3.0,84,0.00,,,0.00,Wunderground v.1.15,2013-02-27 07:22:00,
2013-02-27 02:31:00,36.2,32.1,30.09,North,355,0.0,0.0,85,0.00,,,0.00,Wunderground v.1.15,2013-02-27 07:31:00,
2013-02-27 02:42:00,36.2,32.1,30.08,ESE,113,0.0,1.0,85,0.00,,,0.00,Wunderground v.1.15,2013-02-27 07:42:00,
2013-02-27 02:52:00,36.1,32.3,30.08,ENE,60,0.0,0.0,86,0.00,,,0.00,Wunderground v.1.15,2013-02-27 07:52:00,
2013-02-27 03:01:00,36.3,32.8,30.08,NE,56,0.0,0.0,87,0.00,,,0.00,Wunderground v.1.15,2013-02-27 08:01:00,
2013-02-27 03:12:00,36.2,33.0,30.08,NE,53,0.0,0.0,88,0.00,,,0.00,Wunderground v.1.15,2013-02-27 08:12:00,
2013-02-27 03:22:00,35.9,33.3,30.08,ENE,73,0.0,0.0,90,0.00,,,0.01,Wunderground v.1.15,2013-02-27 08:22:00,
2013-02-27 03:32:00,35.7,33.3,30.08,SE,140,0.0,0.0,91,0.00,,,0.01,Wunderground v.1.15,2013-02-27 08:32:00,
2013-02-27 03:42:00,35.6,33.2,30.08,SE,132,0.0,0.0,91,0.00,,,0.02,Wunderground v.1.15,2013-02-27 08:42:00,
2013-02-27 03:52:00,35.4,33.3,30.05,ENE,58,0.0,0.0,92,0.06,,,0.03,Wunderground v.1.15,2013-02-27 08:52:00,
2013-02-27 04:01:00,35.6,33.8,30.06,ESE,119,0.0,1.0,93,0.05,,,0.03,Wunderground v.1.15,2013-02-27 09:01:00,
2013-02-27 04:11:00,35.8,34.0,30.07,East,97,0.0,1.0,93,0.05,,,0.04,Wunderground v.1.15,2013-02-27 09:11:00,
2013-02-27 04:22:00,35.7,33.9,30.06,North,355,0.0,0.0,93,0.07,,,0.05,Wunderground v.1.15,2013-02-27 09:22:00,
2013-02-27 04:32:00,35.7,33.9,30.05,North,351,0.0,0.0,93,0.13,,,0.08,Wunderground v.1.15,2013-02-27 09:32:00,
2013-02-27 04:42:00,35.4,33.6,30.05,North,5,1.0,1.0,93,0.22,,,0.11,Wunderground v.1.15,2013-02-27 09:42:00,
2013-02-27 04:52:00,35.0,33.2,30.04,North,5,2.0,2.0,93,0.06,,,0.12,Wunderground v.1.15,2013-02-27 09:52:00,
2013-02-27 05:01:00,34.9,33.3,30.04,NNE,12,0.0,0.0,94,0.06,,,0.12,Wunderground v.1.15,2013-02-27 10:01:00,
2013-02-27 05:12:00,35.1,33.5,30.03,NE,52,1.0,1.0,94,0.05,,,0.13,Wunderground v.1.15,2013-02-27 10:12:00,
2013-02-27 05:22:00,35.4,34.1,30.02,North,355,1.0,1.0,95,0.05,,,0.14,Wunderground v.1.15,2013-02-27 10:22:00,
2013-02-27 05:32:00,35.7,34.4,30.02,East,92,1.0,1.0,95,0.04,,,0.14,Wunderground v.1.15,2013-02-27 10:32:00,
2013-02-27 05:42:00,35.9,34.6,30.01,NNE,32,1.0,3.0,95,0.00,,,0.14,Wunderground v.1.15,2013-02-27 10:42:00,
2013-02-27 05:52:00,36.2,34.9,30.00,NE,54,1.0,1.0,95,0.00,,,0.15,Wunderground v.1.15,2013-02-27 10:52:00,
2013-02-27 06:02:00,36.4,35.1,29.99,ENE,59,1.0,1.0,95,0.00,,,0.15,Wunderground v.1.15,2013-02-27 11:02:00,
2013-02-27 06:12:00,36.5,35.2,29.99,West,265,1.0,1.0,95,0.00,,,0.15,Wunderground v.1.15,2013-02-27 11:12:00,
2013-02-27 06:21:00,37.1,36.1,29.98,NE,44,1.0,3.0,96,0.00,,,0.15,Wunderground v.1.15,2013-02-27 11:21:00,
2013-02-27 06:32:00,37.4,36.4,29.98,East,82,2.0,2.0,96,0.00,,,0.16,Wunderground v.1.15,2013-02-27 11:32:00,
2013-02-27 06:42:00,37.9,36.9,29.97,NNE,25,2.0,2.0,96,0.00,,,0.16,Wunderground v.1.15,2013-02-27 11:42:00,
2013-02-27 06:52:00,38.1,37.1,29.97,ENE,61,2.0,2.0,96,0.00,,,0.17,Wunderground v.1.15,2013-02-27 11:52:00,
2013-02-27 07:02:00,38.4,37.4,29.96,WSW,253,2.0,2.0,96,0.00,,,0.17,Wunderground v.1.15,2013-02-27 12:02:00,
2013-02-27 07:12:00,38.9,37.9,29.95,East,101,3.0,5.0,96,0.00,,,0.17,Wunderground v.1.15,2013-02-27 12:12:00,
2013-02-27 07:22:00,39.1,38.1,29.95,SSE,161,4.0,4.0,96,0.00,,,0.18,Wunderground v.1.15,2013-02-27 12:22:00,
2013-02-27 07:32:00,39.4,38.4,29.95,ENE,60,3.0,3.0,96,0.04,,,0.19,Wunderground v.1.15,2013-02-27 12:32:00,
2013-02-27 07:42:00,39.4,38.1,29.94,SW,227,3.0,3.0,95,0.04,,,0.19,Wunderground v.1.15,2013-02-27 12:42:00,
2013-02-27 07:52:00,39.5,38.2,29.92,ENE,64,3.0,3.0,95,0.09,,,0.21,Wunderground v.1.15,2013-02-27 12:52:00,
2013-02-27 08:01:00,39.5,38.2,29.93,East,91,3.0,3.0,95,0.09,,,0.22,Wunderground v.1.15,2013-02-27 13:01:00,
2013-02-27 08:12:00,39.5,38.2,29.93,ENE,76,3.0,3.0,95,0.07,,,0.23,Wunderground v.1.15,2013-02-27 13:12:00,
2013-02-27 08:22:00,39.7,38.4,29.92,ENE,72,4.0,4.0,95,0.05,,,0.24,Wunderground v.1.15,2013-02-27 13:22:00,
2013-02-27 08:32:00,39.8,38.5,29.91,SE,145,4.0,6.0,95,0.07,,,0.25,Wunderground v.1.15,2013-02-27 13:32:00,
2013-02-27 08:42:00,39.8,38.5,29.92,SE,134,3.0,5.0,95,0.05,,,0.26,Wunderground v.1.15,2013-02-27 13:42:00,
2013-02-27 08:52:00,40.0,38.7,29.91,East,94,5.0,5.0,95,0.08,,,0.28,Wunderground v.1.15,2013-02-27 13:52:00,
2013-02-27 09:02:00,40.0,38.7,29.90,SE,132,4.0,5.0,95,0.11,,,0.30,Wunderground v.1.15,2013-02-27 14:02:00,
2013-02-27 09:12:00,40.1,38.8,29.89,SE,125,5.0,7.0,95,0.40,,,0.34,Wunderground v.1.15,2013-02-27 14:12:00,
2013-02-27 09:22:00,40.2,38.9,29.89,East,88,6.0,6.0,95,0.21,,,0.38,Wunderground v.1.15,2013-02-27 14:22:00,
2013-02-27 09:31:00,40.4,39.1,29.89,ENE,69,4.0,4.0,95,0.09,,,0.40,Wunderground v.1.15,2013-02-27 14:31:00,
2013-02-27 09:42:00,40.5,39.2,29.89,South,177,5.0,5.0,95,0.07,,,0.41,Wunderground v.1.15,2013-02-27 14:42:00,
2013-02-27 09:52:00,40.6,39.3,29.88,ESE,113,5.0,9.0,95,0.16,,,0.43,Wunderground v.1.15,2013-02-27 14:52:00,
2013-02-27 10:02:00,40.6,39.3,29.87,SSE,164,5.0,16.0,95,0.13,,,0.45,Wunderground v.1.15,2013-02-27 15:02:00,
2013-02-27 10:12:00,40.7,39.4,29.86,ENE,73,6.0,6.0,95,0.13,,,0.47,Wunderground v.1.15,2013-02-27 15:12:00,
2013-02-27 10:22:00,40.5,39.2,29.86,SE,134,3.0,7.0,95,0.07,,,0.48,Wunderground v.1.15,2013-02-27 15:22:00,
2013-02-27 10:31:00,40.7,39.4,29.85,ESE,115,7.0,8.0,95,0.08,,,0.49,Wunderground v.1.15,2013-02-27 15:31:00,
2013-02-27 10:42:00,40.7,39.4,29.84,East,92,6.0,10.0,95,0.11,,,0.51,Wunderground v.1.15,2013-02-27 15:42:00,
2013-02-27 10:52:00,40.7,39.4,29.84,ESE,108,6.0,6.0,95,0.05,,,0.52,Wunderground v.1.15,2013-02-27 15:52:00,
2013-02-27 11:01:00,40.7,39.4,29.84,SSE,161,5.0,5.0,95,0.04,,,0.52,Wunderground v.1.15,2013-02-27 16:01:00,
2013-02-27 11:12:00,40.7,39.4,29.84,SSE,151,5.0,11.0,95,0.00,,,0.53,Wunderground v.1.15,2013-02-27 16:12:00,
2013-02-27 11:22:00,40.8,39.5,29.83,SSW,200,6.0,6.0,95,0.00,,,0.53,Wunderground v.1.15,2013-02-27 16:22:00,
2013-02-27 11:32:00,40.8,39.5,29.83,SSW,205,6.0,10.0,95,0.00,,,0.54,Wunderground v.1.15,2013-02-27 16:32:00,
2013-02-27 11:42:00,40.8,39.5,29.82,South,169,6.0,6.0,95,0.12,,,0.56,Wunderground v.1.15,2013-02-27 16:42:00,
2013-02-27 11:51:00,40.7,39.4,29.80,East,91,5.0,8.0,95,0.09,,,0.57,Wunderground v.1.15,2013-02-27 16:51:00,
2013-02-27 12:02:00,40.7,39.4,29.80,East,89,6.0,6.0,95,0.05,,,0.58,Wunderground v.1.15,2013-02-27 17:02:00,
2013-02-27 12:12:00,40.7,39.1,29.80,South,175,6.0,6.0,94,0.05,,,0.59,Wunderground v.1.15,2013-02-27 17:12:00,
2013-02-27 12:22:00,40.7,39.1,29.79,ESE,112,7.0,7.0,94,0.05,,,0.59,Wunderground v.1.15,2013-02-27 17:22:00,
2013-02-27 12:31:00,40.6,39.0,29.78,East,83,7.0,14.0,94,0.00,,,0.60,Wunderground v.1.15,2013-02-27 17:31:00,
2013-02-27 12:42:00,40.5,38.9,29.78,SE,144,6.0,6.0,94,0.14,,,0.63,Wunderground v.1.15,2013-02-27 17:42:00,
2013-02-27 12:52:00,40.4,39.1,29.77,SSE,154,6.0,6.0,95,0.06,,,0.63,Wunderground v.1.15,2013-02-27 17:52:00,
2013-02-27 13:02:00,40.4,38.8,29.76,ESE,119,6.0,9.0,94,0.12,,,0.65,Wunderground v.1.15,2013-02-27 18:02:00,
2013-02-27 13:12:00,40.2,38.6,29.76,South,182,5.0,7.0,94,0.15,,,0.67,Wunderground v.1.15,2013-02-27 18:12:00,
2013-02-27 13:22:00,40.1,38.5,29.76,East,80,5.0,6.0,94,0.08,,,0.68,Wunderground v.1.15,2013-02-27 18:22:00,
2013-02-27 13:32:00,40.0,38.4,29.77,SE,128,6.0,7.0,94,0.06,,,0.69,Wunderground v.1.15,2013-02-27 18:32:00,
2013-02-27 13:42:00,39.8,38.2,29.77,East,93,6.0,10.0,94,0.05,,,0.70,Wunderground v.1.15,2013-02-27 18:42:00,
2013-02-27 13:52:00,39.6,38.0,29.76,ESE,107,6.0,6.0,94,0.08,,,0.71,Wunderground v.1.15,2013-02-27 18:52:00,
2013-02-27 14:02:00,39.4,37.8,29.76,East,97,4.0,9.0,94,0.04,,,0.72,Wunderground v.1.15,2013-02-27 19:02:00,
2013-02-27 14:12:00,39.1,37.5,29.75,East,88,4.0,5.0,94,0.11,,,0.74,Wunderground v.1.15,2013-02-27 19:12:00,
2013-02-27 14:22:00,38.7,37.1,29.75,ENE,77,5.0,5.0,94,0.19,,,0.77,Wunderground v.1.15,2013-02-27 19:22:00,
2013-02-27 14:32:00,38.4,36.8,29.75,NNE,26,5.0,5.0,94,0.21,,,0.81,Wunderground v.1.15,2013-02-27 19:32:00,
2013-02-27 14:52:00,38.0,36.4,29.75,NE,41,4.0,4.0,94,0.06,,,0.84,Wunderground v.1.15,2013-02-27 19:52:00,
2013-02-27 15:11:00,37.7,36.1,29.75,SSE,154,3.0,3.0,94,0.07,,,0.86,Wunderground v.1.15,2013-02-27 20:11:00,
2013-02-27 15:22:00,37.5,36.2,29.75,ENE,70,4.0,4.0,95,0.05,,,0.87,Wunderground v.1.15,2013-02-27 20:22:00,
2013-02-27 15:32:00,37.4,36.1,29.74,East,88,3.0,5.0,95,0.12,,,0.89,Wunderground v.1.15,2013-02-27 20:32:00,
2013-02-27 15:42:00,37.1,35.8,29.72,ENE,77,3.0,3.0,95,0.08,,,0.90,Wunderground v.1.15,2013-02-27 20:42:00,
2013-02-27 15:52:00,36.8,35.5,29.72,NNE,20,3.0,3.0,95,0.19,,,0.94,Wunderground v.1.15,2013-02-27 20:52:00,
2013-02-27 16:02:00,36.5,35.2,29.72,ESE,122,2.0,2.0,95,0.10,,,0.96,Wunderground v.1.15,2013-02-27 21:02:00,
2013-02-27 16:12:00,36.3,35.0,29.72,SE,127,3.0,3.0,95,0.08,,,0.97,Wunderground v.1.15,2013-02-27 21:12:00,
2013-02-27 16:22:00,36.1,34.8,29.71,ESE,123,2.0,4.0,95,0.04,,,0.97,Wunderground v.1.15,2013-02-27 21:22:00,
2013-02-27 16:32:00,36.1,34.8,29.71,ENE,67,3.0,3.0,95,0.00,,,0.97,Wunderground v.1.15,2013-02-27 21:32:00,
2013-02-27 16:42:00,36.1,34.8,29.70,ENE,63,3.0,5.0,95,0.00,,,0.98,Wunderground v.1.15,2013-02-27 21:42:00,
2013-02-27 16:51:00,36.2,34.9,29.70,East,92,2.0,3.0,95,0.06,,,0.99,Wunderground v.1.15,2013-02-27 21:51:00,
2013-02-27 17:02:00,36.2,34.9,29.69,East,87,3.0,3.0,95,0.05,,,0.99,Wunderground v.1.15,2013-02-27 22:02:00,
2013-02-27 17:12:00,36.2,34.9,29.69,ENE,59,1.0,1.0,95,0.00,,,0.99,Wunderground v.1.15,2013-02-27 22:12:00,
2013-02-27 17:22:00,36.5,35.5,29.69,ENE,78,2.0,2.0,96,0.00,,,0.99,Wunderground v.1.15,2013-02-27 22:22:00,
2013-02-27 17:32:00,36.7,35.7,29.69,NNW,333,2.0,2.0,96,0.00,,,0.99,Wunderground v.1.15,2013-02-27 22:32:00,
2013-02-27 17:42:00,36.8,35.5,29.69,ESE,111,2.0,2.0,95,0.00,,,0.99,Wunderground v.1.15,2013-02-27 22:42:00,
2013-02-27 17:52:00,37.0,36.0,29.68,ENE,72,2.0,4.0,96,0.00,,,1.00,Wunderground v.1.15,2013-02-27 22:52:00,
2013-02-27 18:02:00,37.1,36.1,29.69,North,10,2.0,2.0,96,0.04,,,1.01,Wunderground v.1.15,2013-02-27 23:02:00,
2013-02-27 18:12:00,37.3,36.3,29.69,ENE,69,2.0,2.0,96,0.04,,,1.01,Wunderground v.1.15,2013-02-27 23:12:00,
2013-02-27 18:22:00,37.3,36.3,29.68,ENE,65,1.0,1.0,96,0.04,,,1.02,Wunderground v.1.15,2013-02-27 23:22:00,
2013-02-27 18:32:00,37.4,36.4,29.68,North,360,1.0,1.0,96,0.06,,,1.03,Wunderground v.1.15,2013-02-27 23:32:00,
2013-02-27 18:42:00,37.4,36.4,29.68,ESE,120,2.0,2.0,96,0.04,,,1.03,Wunderground v.1.15,2013-02-27 23:42:00,
2013-02-27 18:52:00,37.4,36.4,29.67,NE,50,1.0,1.0,96,0.04,,,1.04,Wunderground v.1.15,2013-02-27 23:52:00,
2013-02-27 19:02:00,37.3,36.3,29.66,ESE,107,1.0,3.0,96,0.00,,,1.04,Wunderground v.1.15,2013-02-28 00:02:00,
2013-02-27 19:12:00,37.3,36.3,29.65,ESE,111,2.0,8.0,96,0.00,,,1.04,Wunderground v.1.15,2013-02-28 00:12:00,
2013-02-27 19:22:00,37.3,36.3,29.64,West,262,2.0,2.0,96,0.00,,,1.05,Wunderground v.1.15,2013-02-28 00:22:00,
2013-02-27 19:32:00,37.3,36.3,29.63,NE,45,1.0,1.0,96,0.00,,,1.05,Wunderground v.1.15,2013-02-28 00:32:00,
2013-02-27 19:42:00,37.3,36.3,29.64,ENE,67,1.0,1.0,96,0.00,,,1.05,Wunderground v.1.15,2013-02-28 00:42:00,
2013-02-27 19:52:00,37.3,36.3,29.64,East,84,2.0,2.0,96,0.00,,,1.05,Wunderground v.1.15,2013-02-28 00:52:00,
2013-02-27 20:01:00,37.3,36.3,29.63,ENE,61,1.0,1.0,96,0.00,,,1.05,Wunderground v.1.15,2013-02-28 01:01:00,
2013-02-27 20:11:00,37.4,36.4,29.62,North,360,1.0,1.0,96,0.00,,,1.06,Wunderground v.1.15,2013-02-28 01:11:00,
2013-02-27 20:22:00,37.5,36.5,29.63,NNW,329,1.0,1.0,96,0.05,,,1.06,Wunderground v.1.15,2013-02-28 01:22:00,
2013-02-27 20:32:00,37.4,36.4,29.62,East,81,1.0,1.0,96,0.05,,,1.07,Wunderground v.1.15,2013-02-28 01:32:00,
2013-02-27 20:42:00,37.3,36.3,29.62,NNE,30,0.0,2.0,96,0.00,,,1.07,Wunderground v.1.15,2013-02-28 01:42:00,
2013-02-27 20:52:00,37.3,36.3,29.61,NW,321,0.0,1.0,96,0.00,,,1.08,Wunderground v.1.15,2013-02-28 01:52:00,
2013-02-27 21:02:00,37.5,36.5,29.61,ESE,119,0.0,0.0,96,0.04,,,1.09,Wunderground v.1.15,2013-02-28 02:02:00,
2013-02-27 21:12:00,37.4,36.4,29.60,NE,38,0.0,2.0,96,0.04,,,1.09,Wunderground v.1.15,2013-02-28 02:12:00,
2013-02-27 21:22:00,37.5,36.5,29.60,NNE,22,1.0,1.0,96,0.00,,,1.09,Wunderground v.1.15,2013-02-28 02:22:00,
2013-02-27 21:32:00,37.4,36.4,29.60,NNE,30,1.0,1.0,96,0.00,,,1.09,Wunderground v.1.15,2013-02-28 02:32:00,
2013-02-27 21:42:00,37.2,36.2,29.59,NE,50,1.0,1.0,96,0.00,,,1.09,Wunderground v.1.15,2013-02-28 02:42:00,
2013-02-27 21:52:00,37.3,36.3,29.58,NNW,340,1.0,1.0,96,0.00,,,1.09,Wunderground v.1.15,2013-02-28 02:52:00,
2013-02-27 22:02:00,37.4,36.4,29.57,NE,53,0.0,2.0,96,0.00,,,1.09,Wunderground v.1.15,2013-02-28 03:02:00,
2013-02-27 22:22:00,37.5,36.5,29.57,North,355,1.0,2.0,96,0.00,,,1.10,Wunderground v.1.15,2013-02-28 03:22:00,
2013-02-27 22:32:00,37.5,36.5,29.57,NNW,340,1.0,4.0,96,0.00,,,1.10,Wunderground v.1.15,2013-02-28 03:32:00,
2013-02-27 22:42:00,37.5,36.5,29.58,WNW,287,1.0,1.0,96,0.00,,,1.10,Wunderground v.1.15,2013-02-28 03:42:00,
2013-02-27 22:52:00,36.8,35.8,29.58,WSW,252,2.0,2.0,96,0.00,,,1.10,Wunderground v.1.15,2013-02-28 03:52:00,
2013-02-27 23:02:00,36.4,35.4,29.58,WNW,301,2.0,2.0,96,0.00,,,1.10,Wunderground v.1.15,2013-02-28 04:02:00,
2013-02-27 23:12:00,36.0,35.0,29.58,West,266,2.0,2.0,96,0.00,,,1.11,Wunderground v.1.15,2013-02-28 04:12:00,
2013-02-27 23:22:00,35.8,34.8,29.58,NNW,343,1.0,1.0,96,0.00,,,1.11,Wunderground v.1.15,2013-02-28 04:22:00,
2013-02-27 23:32:00,35.6,34.6,29.58,WNW,289,1.0,3.0,96,0.00,,,1.11,Wunderground v.1.15,2013-02-28 04:32:00,
2013-02-27 23:42:00,35.5,34.5,29.57,WSW,254,1.0,1.0,96,0.00,,,1.11,Wunderground v.1.15,2013-02-28 04:42:00,
2013-02-27 23:51:00,35.4,34.4,29.57,NNE,30,1.0,1.0,96,0.00,,,1.11,Wunderground v.1.15,2013-02-28 04:51:00,